Time;durP1;ratioP1;P1;durP2;ratioP2;P2;SDS_P1;SDS_P2;PMS_P1;PMS_P2;Temp;Humidity;BMP_temperature;BMP_pressure;BME280_temperature;BME280_humidity;BME280_pressure;Samples;Min_cycle;Max_cycle;Signal;HPM_P1;HPM_P2
2022/06/16 00:01:45;;;;;;;1.63;1.20;;;;;;;14.83;85.73;99042.56;5035595;28;20049;-38
2022/06/16 00:04:11;;;;;;;1.63;1.30;;;;;;;14.84;85.63;99039.03;5042392;28;20072;-38
2022/06/16 00:06:37;;;;;;;2.15;1.40;;;;;;;14.83;85.46;99039.97;5036970;28;20090;-38
2022/06/16 00:09:03;;;;;;;2.25;1.45;;;;;;;14.84;85.21;99043.41;5030693;28;20038;-36
2022/06/16 00:11:29;;;;;;;4.00;1.45;;;;;;;14.86;85.56;99038.94;5031495;28;20041;-36
2022/06/16 00:13:55;;;;;;;1.85;1.20;;;;;;;14.75;85.61;99026.53;5041447;28;20186;-37
2022/06/16 00:16:22;;;;;;;5.85;1.60;;;;;;;14.86;85.52;99040.72;5044469;28;20132;-38
2022/06/16 00:18:48;;;;;;;2.58;1.70;;;;;;;14.88;85.64;99039.66;5045252;28;20051;-38
2022/06/16 00:21:14;;;;;;;2.45;1.30;;;;;;;14.90;85.12;99037.81;5044838;28;20132;-37
2022/06/16 00:23:40;;;;;;;2.17;1.10;;;;;;;14.93;84.91;99034.13;5049091;28;20045;-37
2022/06/16 00:26:18;;;;;;;3.67;1.40;;;;;;;14.93;84.98;99031.53;5041907;28;20045;-38
2022/06/16 00:28:45;;;;;;;1.92;1.25;;;;;;;14.94;84.65;99039.28;5036743;28;20135;-37
2022/06/16 00:31:14;;;;;;;3.72;0.98;;;;;;;14.94;84.64;99033.22;5043814;28;20051;-38
2022/06/16 00:33:41;;;;;;;4.45;1.13;;;;;;;14.93;84.48;99036.75;5033796;28;20186;-37
2022/06/16 00:36:08;;;;;;;2.75;1.40;;;;;;;14.91;84.42;99042.13;5062337;28;20529;-38
2022/06/16 00:38:33;;;;;;;3.63;1.50;;;;;;;14.92;84.52;99040.31;5034459;28;20052;-38
2022/06/16 00:40:59;;;;;;;3.00;1.60;;;;;;;14.75;84.17;99013.44;5048775;28;20029;-37
2022/06/16 00:43:25;;;;;;;4.63;1.20;;;;;;;14.88;84.11;99041.44;5037789;28;20056;-37
2022/06/16 00:46:06;;;;;;;2.28;1.40;;;;;;;14.90;84.06;99029.97;5031570;28;20056;-37
2022/06/16 00:48:43;;;;;;;2.53;1.20;;;;;;;14.93;83.43;99036.75;5048777;28;20040;-38
2022/06/16 00:51:40;;;;;;;2.60;1.38;;;;;;;14.89;83.57;99041.34;5047544;28;20459;-37
2022/06/16 00:54:19;;;;;;;1.52;1.33;;;;;;;14.85;83.74;99042.50;5036425;28;20033;-40
2022/06/16 00:56:47;;;;;;;2.65;1.48;;;;;;;14.84;83.88;99038.19;5020235;28;20132;-38
2022/06/16 00:59:13;;;;;;;2.40;1.25;;;;;;;14.83;83.54;99047.81;5039635;28;20081;-38
2022/06/16 01:01:40;;;;;;;7.47;1.58;;;;;;;14.84;83.26;99044.25;5030015;28;20541;-37
2022/06/16 01:06:52;;;;;;;3.33;1.40;;;;;;;14.78;83.38;99043.78;5055764;28;20068;-39
2022/06/16 01:09:20;;;;;;;2.28;1.40;;;;;;;14.73;83.47;99053.69;5028751;28;20128;-37
2022/06/16 01:15:07;;;;;;;2.63;1.30;;;;;;;14.62;83.54;99049.13;5038345;28;20048;-38
2022/06/16 01:17:44;;;;;;;1.60;1.33;;;;;;;14.46;83.95;99035.28;5029890;28;20041;-38
2022/06/16 01:20:19;;;;;;;2.75;1.40;;;;;;;14.54;83.37;99047.91;5046363;28;20041;-36
2022/06/16 01:22:51;;;;;;;2.60;1.50;;;;;;;14.50;83.62;99052.47;5049648;28;20043;-38
2022/06/16 01:25:59;;;;;;;3.70;1.30;;;;;;;14.49;83.81;99057.81;5053153;28;20460;-37
2022/06/16 01:28:30;;;;;;;3.07;1.43;;;;;;;14.45;83.73;99051.06;5026499;28;20056;-38
2022/06/16 01:31:08;;;;;;;2.78;1.30;;;;;;;14.43;83.72;99059.03;5051966;28;20497;-37
2022/06/16 01:33:39;;;;;;;1.55;1.42;;;;;;;14.32;83.95;99040.47;5051975;28;20087;-36
2022/06/16 01:36:06;;;;;;;3.67;1.42;;;;;;;14.41;83.41;99063.50;5038152;28;20037;-37
2022/06/16 01:38:32;;;;;;;2.50;1.70;;;;;;;14.43;83.14;99059.03;5047189;28;20060;-37
2022/06/16 01:41:16;;;;;;;2.97;1.70;;;;;;;14.46;83.11;99065.81;5033205;28;20171;-36
2022/06/16 01:43:46;;;;;;;2.78;1.65;;;;;;;14.46;82.66;99057.97;5033281;28;20041;-36
2022/06/16 01:46:26;;;;;;;3.42;1.25;;;;;;;14.48;82.45;99066.59;5066806;28;20041;-37
2022/06/16 01:49:23;;;;;;;3.67;1.55;;;;;;;14.49;82.43;99070.91;5049179;28;20036;-37
2022/06/16 01:52:02;;;;;;;3.53;1.50;;;;;;;14.49;82.43;99068.28;5017263;28;20424;-38
2022/06/16 01:54:34;;;;;;;2.28;1.08;;;;;;;14.49;82.20;99082.19;5031779;28;20520;-37
2022/06/16 01:57:04;;;;;;;3.17;1.23;;;;;;;14.48;82.46;99083.13;5029101;28;20484;-37
2022/06/16 01:59:38;;;;;;;5.38;1.30;;;;;;;14.51;82.36;99080.31;5027830;28;20056;-37
2022/06/16 02:02:09;;;;;;;2.58;1.35;;;;;;;14.52;82.06;99084.63;5026215;28;20050;-37
2022/06/16 02:04:38;;;;;;;5.75;1.38;;;;;;;14.54;81.78;99090.63;5015427;28;20052;-38
2022/06/16 02:07:09;;;;;;;2.83;1.40;;;;;;;14.54;81.70;99080.16;5013063;28;20124;-36
2022/06/16 02:09:39;;;;;;;2.63;1.50;;;;;;;14.58;81.74;99083.41;5000718;28;20524;-37
2022/06/16 02:12:11;;;;;;;3.50;1.48;;;;;;;14.57;81.71;99092.19;5012240;28;20057;-37
2022/06/16 02:14:41;;;;;;;2.70;0.95;;;;;;;14.52;81.60;99095.09;5043215;28;20038;-37
2022/06/16 02:17:21;;;;;;;3.47;1.58;;;;;;;14.44;82.00;99089.47;5031294;28;20067;-38
2022/06/16 02:20:07;;;;;;;1.70;1.30;;;;;;;14.44;82.00;99101.72;5017727;28;20033;-37
2022/06/16 02:22:34;;;;;;;2.47;1.27;;;;;;;14.39;82.18;99102.81;5064682;28;20099;-37
2022/06/16 02:25:01;;;;;;;3.25;1.20;;;;;;;14.36;81.99;99097.75;5030441;28;20044;-43
2022/06/16 02:27:26;;;;;;;4.65;1.67;;;;;;;14.35;82.74;99101.28;5064536;28;20045;-38
2022/06/16 02:29:53;;;;;;;4.72;1.50;;;;;;;14.29;83.26;99104.25;5046734;28;20080;-37
2022/06/16 02:32:39;;;;;;;2.28;1.40;;;;;;;14.27;83.54;99108.75;5052384;28;20041;-38
2022/06/16 02:35:10;;;;;;;2.45;1.38;;;;;;;14.23;83.65;99107.25;5048123;28;20508;-38
2022/06/16 02:37:36;;;;;;;3.85;1.30;;;;;;;14.23;83.90;99109.00;5033426;28;20049;-37
2022/06/16 02:40:19;;;;;;;5.60;1.30;;;;;;;14.20;83.92;99120.47;5049602;28;20037;-37
2022/06/16 02:43:07;;;;;;;2.65;1.40;;;;;;;14.11;84.01;99107.09;5050085;28;20155;-36
2022/06/16 02:45:48;;;;;;;1.50;1.33;;;;;;;14.15;84.33;99119.91;5030802;28;20045;-37
2022/06/16 02:48:32;;;;;;;4.05;1.45;;;;;;;14.15;84.23;99122.53;5030685;28;20106;-37
2022/06/16 02:51:01;;;;;;;4.45;1.40;;;;;;;14.17;84.61;99119.81;5030988;28;20501;-37
2022/06/16 02:56:56;;;;;;;4.20;1.23;;;;;;;14.22;83.98;99120.41;5030525;28;19917;-36
2022/06/16 02:59:28;;;;;;;2.10;1.40;;;;;;;14.16;83.90;99107.69;5029759;28;20053;-37
2022/06/16 03:02:01;;;;;;;4.82;1.38;;;;;;;14.28;83.83;99122.66;5046646;28;20045;-37
2022/06/16 03:04:36;;;;;;;5.15;1.58;;;;;;;14.33;83.56;99123.22;5011011;28;20042;-37
2022/06/16 03:07:03;;;;;;;3.55;1.42;;;;;;;14.38;83.47;99126.44;5025135;28;20571;-37
2022/06/16 03:09:30;;;;;;;3.17;1.13;;;;;;;14.40;83.27;99128.03;5030342;28;20402;-36
2022/06/16 03:11:57;;;;;;;2.30;1.65;;;;;;;14.46;83.31;99129.44;5031585;28;20288;-37
2022/06/16 03:14:24;;;;;;;2.15;1.40;;;;;;;14.46;82.66;99132.06;5013396;28;20089;-37
2022/06/16 03:16:50;;;;;;;5.72;1.35;;;;;;;14.49;81.90;99137.13;5030462;28;20041;-36
2022/06/16 03:19:17;;;;;;;3.25;1.27;;;;;;;14.53;81.71;99132.56;5045531;28;20049;-37
2022/06/16 03:21:43;;;;;;;3.50;1.48;;;;;;;14.55;81.31;99130.69;5010159;28;20112;-37
2022/06/16 03:24:09;;;;;;;3.20;1.42;;;;;;;14.61;81.37;99123.31;5019527;28;20589;-37
2022/06/16 03:26:35;;;;;;;1.73;1.20;;;;;;;14.68;81.53;99129.03;5030039;28;20505;-36
2022/06/16 03:29:02;;;;;;;1.52;1.20;;;;;;;14.69;81.21;99121.09;5030768;28;20051;-37
2022/06/16 03:31:29;;;;;;;1.77;1.38;;;;;;;14.71;80.81;99127.03;5014086;28;20034;-37
2022/06/16 03:33:56;;;;;;;1.58;1.20;;;;;;;14.72;80.56;99131.34;5033974;28;20049;-37
2022/06/16 03:36:26;;;;;;;4.57;1.23;;;;;;;14.76;80.63;99140.69;5030042;28;20052;-36
2022/06/16 03:38:53;;;;;;;3.47;1.42;;;;;;;14.80;81.29;99125.66;5030896;28;20071;-37
2022/06/16 03:41:20;;;;;;;1.60;1.20;;;;;;;14.86;81.04;99146.25;5031638;28;20041;-37
2022/06/16 03:43:46;;;;;;;3.50;1.63;;;;;;;14.86;80.44;99132.31;5033262;28;20124;-37
2022/06/16 03:46:20;;;;;;;1.17;0.90;;;;;;;14.88;80.08;99144.34;5031342;28;20045;-37
2022/06/16 03:48:56;;;;;;;2.88;1.50;;;;;;;14.91;80.23;99136.34;5029667;28;20057;-37
2022/06/16 03:51:34;;;;;;;1.97;1.30;;;;;;;14.91;79.77;99131.09;5034530;28;20095;-36
2022/06/16 03:54:01;;;;;;;2.05;1.23;;;;;;;14.99;80.26;99139.31;5046508;28;20044;-37
2022/06/16 03:56:27;;;;;;;2.78;1.58;;;;;;;15.04;80.29;99139.88;5014860;28;20029;-37
2022/06/16 03:58:55;;;;;;;5.53;1.60;;;;;;;15.11;80.49;99141.19;5047466;28;20144;-37
2022/06/16 04:01:23;;;;;;;4.00;1.60;;;;;;;15.18;79.47;99146.88;5005073;28;20504;-37
2022/06/16 04:04:01;;;;;;;3.60;1.50;;;;;;;15.26;79.27;99142.03;5028882;28;20037;-37
2022/06/16 04:06:38;;;;;;;1.63;1.35;;;;;;;15.31;78.50;99150.44;5040405;28;20566;-38
2022/06/16 04:09:05;;;;;;;5.97;1.20;;;;;;;15.38;78.92;99156.13;5030794;28;20513;-36
2022/06/16 04:11:34;;;;;;;1.75;1.40;;;;;;;15.43;78.12;99147.06;5031703;28;20048;-37
2022/06/16 04:14:09;;;;;;;4.28;1.50;;;;;;;15.50;77.79;99147.50;5029744;28;20041;-37
2022/06/16 04:16:46;;;;;;;4.32;1.40;;;;;;;15.56;77.21;99145.38;5032710;28;20091;-37
2022/06/16 04:19:16;;;;;;;3.40;1.40;;;;;;;15.61;76.66;99142.44;5043305;28;20478;-37
2022/06/16 04:21:44;;;;;;;1.98;1.40;;;;;;;15.66;76.38;99148.25;5014520;28;20580;-37
2022/06/16 04:24:33;;;;;;;4.55;1.35;;;;;;;15.75;76.41;99152.06;5034364;28;20077;-38
2022/06/16 04:27:01;;;;;;;3.50;1.30;;;;;;;15.80;75.55;99144.75;5062446;28;20595;-36
2022/06/16 04:29:29;;;;;;;3.08;1.25;;;;;;;15.77;74.30;99130.06;5029450;28;20067;-36
2022/06/16 04:31:55;;;;;;;3.75;1.40;;;;;;;15.90;75.16;99149.31;5012990;28;20544;-38
2022/06/16 04:34:29;;;;;;;1.58;1.17;;;;;;;15.97;74.36;99141.88;5029734;28;20049;-37
2022/06/16 04:36:55;;;;;;;1.92;1.30;;;;;;;16.03;73.50;99144.09;5030474;28;20052;-38
2022/06/16 04:39:23;;;;;;;1.45;1.10;;;;;;;16.08;73.17;99144.63;5047862;28;20033;-38
2022/06/16 04:41:51;;;;;;;3.40;1.63;;;;;;;16.17;73.22;99140.59;5048967;28;20086;-37
2022/06/16 04:44:18;;;;;;;2.60;1.25;;;;;;;16.25;72.50;99140.91;5031784;28;20051;-36
2022/06/16 04:46:45;;;;;;;1.60;1.35;;;;;;;16.29;71.57;99145.00;5029422;28;20041;-38
2022/06/16 04:49:13;;;;;;;3.78;1.45;;;;;;;16.34;71.18;99150.78;5045718;28;20131;-37
2022/06/16 04:51:43;;;;;;;4.38;1.60;;;;;;;16.39;71.30;99146.91;5029263;28;20506;-37
2022/06/16 04:54:11;;;;;;;8.48;1.80;;;;;;;16.42;71.02;99154.59;5029236;28;20527;-37
2022/06/16 04:57:02;;;;;;;6.60;1.42;;;;;;;16.49;70.64;99147.97;5031583;28;20057;-37
2022/06/16 04:59:44;;;;;;;4.05;1.58;;;;;;;16.57;70.69;99150.09;5051479;28;20057;-37
2022/06/16 05:02:33;;;;;;;3.38;1.33;;;;;;;16.62;69.54;99150.66;5046705;28;20160;-42
2022/06/16 05:05:19;;;;;;;4.93;1.30;;;;;;;16.68;69.32;99155.50;5032511;28;20132;-38
2022/06/16 05:07:56;;;;;;;2.55;1.30;;;;;;;16.76;69.64;99149.72;5025157;28;20529;-38
2022/06/16 05:10:57;;;;;;;3.88;1.65;;;;;;;16.84;69.33;99153.53;5011948;28;20510;-38
2022/06/16 05:13:43;;;;;;;2.80;1.45;;;;;;;16.96;68.58;99148.38;4997591;28;20464;-38
2022/06/16 05:16:24;;;;;;;5.45;1.23;;;;;;;17.05;67.75;99158.25;4994192;28;20045;-40
2022/06/16 05:19:09;;;;;;;3.92;1.25;;;;;;;17.08;67.70;99153.59;5009482;28;20144;-37
2022/06/16 05:21:55;;;;;;;2.50;1.38;;;;;;;17.16;67.50;99159.19;4973095;28;20611;-37
2022/06/16 05:24:53;;;;;;;3.80;1.35;;;;;;;17.27;67.31;99150.56;4994502;28;20054;-38
2022/06/16 05:27:37;;;;;;;2.00;1.35;;;;;;;17.29;65.82;99140.75;5009684;28;20056;-39
2022/06/16 05:30:22;;;;;;;7.80;1.83;;;;;;;17.45;66.45;99157.13;5009495;28;20045;-37
2022/06/16 05:33:02;;;;;;;4.90;1.48;;;;;;;17.52;64.55;99158.38;4993322;28;20181;-37
2022/06/16 05:35:35;;;;;;;4.53;1.38;;;;;;;17.58;65.51;99157.09;5009021;28;20053;-37
2022/06/16 05:38:27;;;;;;;4.30;1.70;;;;;;;17.63;65.84;99155.88;4987954;28;20109;-38
2022/06/16 05:41:19;;;;;;;5.93;1.70;;;;;;;17.80;65.92;99157.25;5006212;28;20042;-37
2022/06/16 05:44:04;;;;;;;5.30;1.40;;;;;;;17.86;65.02;99161.22;5014069;28;20532;-37
2022/06/16 05:46:42;;;;;;;4.90;1.35;;;;;;;17.91;64.55;99167.84;5031780;28;20038;-37
2022/06/16 05:49:11;;;;;;;5.97;1.60;;;;;;;17.96;64.11;99163.09;5031877;28;20044;-38
2022/06/16 05:51:38;;;;;;;2.53;1.40;;;;;;;18.00;64.23;99163.72;5040009;28;20572;-38
2022/06/16 05:54:08;;;;;;;2.92;1.33;;;;;;;18.02;63.93;99152.13;5040305;28;20132;-39
2022/06/16 05:56:36;;;;;;;7.13;1.55;;;;;;;18.21;63.35;99168.22;5054152;28;20049;-38
2022/06/16 05:59:02;;;;;;;3.60;1.33;;;;;;;18.32;63.44;99161.34;5031343;28;20490;-38
2022/06/16 06:01:29;;;;;;;1.98;1.25;;;;;;;18.45;62.64;99157.69;5031278;28;20051;-37
2022/06/16 06:04:02;;;;;;;2.47;1.50;;;;;;;18.56;62.18;99154.28;5031379;28;20123;-37
2022/06/16 06:06:28;;;;;;;3.00;1.27;;;;;;;18.64;61.45;99157.16;5039421;28;20049;-37
2022/06/16 06:17:17;;;;;;;2.03;1.13;;;;;;;18.92;58.29;99154.09;5024947;28;20095;-37
2022/06/16 06:19:43;;;;;;;5.10;1.40;;;;;;;19.09;58.71;99158.06;5055524;28;20040;-38
2022/06/16 06:22:16;;;;;;;4.38;1.40;;;;;;;19.11;58.92;99148.25;5026287;28;20045;-37
2022/06/16 06:24:42;;;;;;;4.03;1.58;;;;;;;19.25;58.77;99160.34;5022138;28;20536;-37
2022/06/16 06:27:38;;;;;;;4.13;1.40;;;;;;;19.48;58.52;99148.00;5022160;28;20042;-37
2022/06/16 06:30:08;;;;;;;4.32;1.38;;;;;;;19.56;56.63;99157.00;5028916;28;20073;-38
2022/06/16 06:32:34;;;;;;;;;;;;;;;19.62;55.80;99151.25;5021895;28;20051;-37
2022/06/16 06:35:01;;;;;;;3.35;1.40;;;;;;;19.83;56.37;99154.81;5021767;28;19924;-36
2022/06/16 06:37:28;;;;;;;2.75;1.20;;;;;;;20.08;55.34;99153.66;5020534;28;20514;-36
2022/06/16 06:39:55;;;;;;;3.75;1.30;;;;;;;20.17;52.44;99136.19;5003748;28;20045;-36
2022/06/16 06:42:22;;;;;;;3.95;1.20;;;;;;;20.64;51.08;99151.59;5022776;28;20074;-37
2022/06/16 06:44:48;;;;;;;1.77;1.25;;;;;;;21.35;48.83;99149.09;5019995;28;20119;-37
2022/06/16 06:47:17;;;;;;;2.38;1.10;;;;;;;21.97;47.04;99156.78;5027894;28;20069;-37
2022/06/16 06:49:43;;;;;;;2.97;1.15;;;;;;;22.66;45.54;99151.34;5029036;28;20060;-37
2022/06/16 06:52:09;;;;;;;1.58;1.08;;;;;;;23.80;43.46;99151.09;5031811;28;20041;-37
2022/06/16 06:54:35;;;;;;;3.03;1.23;;;;;;;24.70;41.53;99148.31;5031482;28;20037;-37
2022/06/16 06:57:01;;;;;;;4.60;1.40;;;;;;;25.41;39.53;99140.09;5031336;28;20048;-38
2022/06/16 06:59:26;;;;;;;4.22;1.02;;;;;;;26.13;36.94;99150.97;5029625;28;20135;-37
2022/06/16 07:01:52;;;;;;;1.80;1.10;;;;;;;27.00;35.92;99148.69;5031222;28;20049;-37
2022/06/16 07:04:18;;;;;;;1.90;1.20;;;;;;;27.84;33.80;99148.06;5031339;28;20512;-37
2022/06/16 07:06:46;;;;;;;4.45;1.30;;;;;;;28.00;32.63;99150.63;5031162;28;20501;-38
2022/06/16 07:09:19;;;;;;;2.53;1.00;;;;;;;28.22;32.23;99150.66;5030223;28;20103;-38
2022/06/16 07:11:45;;;;;;;2.05;1.05;;;;;;;28.83;31.18;99146.19;5028777;28;20044;-37
2022/06/16 07:14:11;;;;;;;4.68;1.27;;;;;;;29.24;30.85;99143.06;5031156;28;20037;-37
2022/06/16 07:16:38;;;;;;;4.97;1.20;;;;;;;30.33;28.93;99153.69;5030999;28;20128;-38
2022/06/16 07:19:04;;;;;;;2.22;1.25;;;;;;;30.10;28.48;99136.94;5030027;28;20087;-38
2022/06/16 07:21:30;;;;;;;3.63;1.30;;;;;;;30.14;27.99;99138.22;5029044;28;20456;-38
2022/06/16 07:23:55;;;;;;;4.95;1.50;;;;;;;31.29;27.45;99147.66;5030466;28;20472;-37
2022/06/16 07:26:22;;;;;;;2.88;1.40;;;;;;;31.72;27.11;99145.59;5032119;28;20095;-38
2022/06/16 07:28:49;;;;;;;6.60;1.38;;;;;;;32.14;25.73;99141.81;5024388;28;20122;-38
2022/06/16 07:31:16;;;;;;;3.63;1.73;;;;;;;32.62;25.42;99122.81;5027730;28;20140;-38
2022/06/16 07:33:42;;;;;;;2.00;1.08;;;;;;;32.45;23.85;99130.47;5031377;28;20088;-38
2022/06/16 07:36:10;;;;;;;7.88;1.58;;;;;;;32.18;24.65;99129.63;5031168;28;20041;-38
2022/06/16 07:38:37;;;;;;;3.13;1.25;;;;;;;33.05;24.03;99123.19;5030187;28;20036;-38
2022/06/16 07:43:47;;;;;;;1.40;1.17;;;;;;;32.70;23.36;99130.72;5031196;28;20133;-39
2022/06/16 07:46:13;;;;;;;4.55;0.95;;;;;;;32.69;23.47;99129.06;5031476;28;20071;-38
2022/06/16 07:48:38;;;;;;;2.95;1.30;;;;;;;32.88;23.79;99114.72;5031152;28;20043;-38
2022/06/16 07:51:05;;;;;;;3.05;1.77;;;;;;;33.96;22.79;99115.84;5030988;28;20041;-37
2022/06/16 07:53:31;;;;;;;4.10;1.48;;;;;;;32.40;24.02;99111.41;5029701;28;20049;-38
2022/06/16 07:55:56;;;;;;;7.57;1.40;;;;;;;29.67;26.95;99112.75;5030311;28;20034;-38
2022/06/16 07:58:23;;;;;;;4.20;1.23;;;;;;;30.39;25.77;99099.25;5028276;28;20037;-38
2022/06/16 08:00:49;;;;;;;2.92;1.50;;;;;;;31.77;24.40;99112.75;5029168;28;20140;-38
2022/06/16 08:03:15;;;;;;;5.78;1.20;;;;;;;32.45;23.52;99100.84;5029589;28;20037;-38
2022/06/16 08:05:42;;;;;;;5.35;1.23;;;;;;;32.20;24.04;99099.81;5030343;28;20091;-37
2022/06/16 08:08:08;;;;;;;4.30;1.35;;;;;;;30.60;25.81;99103.78;5029260;28;20128;-38
2022/06/16 08:10:35;;;;;;;3.47;1.40;;;;;;;32.13;24.41;99101.69;5029259;28;20116;-37
2022/06/16 08:13:01;;;;;;;2.63;1.25;;;;;;;33.50;22.93;99100.69;5029231;28;20046;-37
2022/06/16 08:15:27;;;;;;;3.08;1.00;;;;;;;34.15;22.25;99104.09;5020199;28;20049;-38
2022/06/16 08:17:53;;;;;;;6.10;1.45;;;;;;;34.81;21.92;99112.53;5026855;28;20476;-38
2022/06/16 08:20:19;;;;;;;4.32;1.25;;;;;;;35.71;19.89;99120.09;5029478;28;20037;-38
2022/06/16 08:22:45;;;;;;;3.72;1.33;;;;;;;35.88;18.45;99108.41;5030461;28;20042;-37
2022/06/16 08:25:12;;;;;;;3.42;1.33;;;;;;;36.14;18.88;99109.91;5030852;28;20098;-38
2022/06/16 08:27:39;;;;;;;5.80;1.27;;;;;;;36.63;18.53;99102.50;5029183;28;20456;-38
2022/06/16 08:30:09;;;;;;;3.55;0.80;;;;;;;35.06;20.19;99109.78;5062863;28;20080;-38
2022/06/16 08:32:35;;;;;;;3.28;1.05;;;;;;;32.19;23.76;99104.38;5063661;28;20417;-39
2022/06/16 08:35:01;;;;;;;3.35;1.20;;;;;;;29.88;26.99;99111.94;5033394;28;20037;-42
2022/06/16 08:37:29;;;;;;;2.47;1.10;;;;;;;27.99;30.02;99124.91;5034469;28;20041;-37
2022/06/16 08:39:55;;;;;;;7.20;1.17;;;;;;;26.33;32.60;99124.88;5034430;28;20136;-38
2022/06/16 08:42:42;;;;;;;6.53;1.27;;;;;;;25.23;34.28;99127.69;5034431;28;20128;-38
2022/06/16 08:45:34;;;;;;;5.03;1.20;;;;;;;24.19;36.22;99125.94;5034511;28;20064;-38
2022/06/16 08:48:22;;;;;;;1.92;0.93;;;;;;;23.67;37.08;99135.53;5066474;28;20040;-38
2022/06/16 08:51:22;;;;;;;4.97;1.45;;;;;;;23.21;37.62;99134.59;5034377;28;20513;-41
2022/06/16 08:54:16;;;;;;;6.07;1.15;;;;;;;22.85;37.75;99131.94;5043703;28;20041;-38
2022/06/16 08:56:59;;;;;;;5.28;1.55;;;;;;;22.53;37.83;99130.44;5016135;28;20471;-38
2022/06/16 08:59:32;;;;;;;4.80;1.75;;;;;;;22.28;38.44;99133.69;5033942;28;20521;-37
2022/06/16 09:02:08;;;;;;;4.30;1.70;;;;;;;22.30;38.36;99129.91;5033064;28;20068;-38
2022/06/16 09:04:40;;;;;;;2.30;1.10;;;;;;;22.47;38.00;99123.06;5033046;28;20416;-38
2022/06/16 09:07:15;;;;;;;2.45;1.15;;;;;;;23.35;36.58;99133.28;5033857;28;20086;-38
2022/06/16 09:12:49;;;;;;;2.47;1.23;;;;;;;25.93;32.22;99136.28;5022008;28;20131;-38
2022/06/16 09:15:22;;;;;;;4.30;1.20;;;;;;;27.54;29.34;99123.81;5032123;28;20481;-37
2022/06/16 09:18:10;;;;;;;2.47;1.23;;;;;;;28.40;27.02;99120.13;5046592;28;20041;-38
2022/06/16 09:20:49;;;;;;;7.60;1.10;;;;;;;29.58;24.47;99129.09;5018929;28;20045;-37
2022/06/16 09:23:30;;;;;;;2.30;1.30;;;;;;;31.19;23.67;99123.03;5030089;28;20041;-38
2022/06/16 09:26:08;;;;;;;7.47;1.27;;;;;;;31.66;21.90;99127.59;5033675;28;20045;-37
2022/06/16 09:28:42;;;;;;;0.80;0.80;;;;;;;31.28;21.20;99124.50;5061735;28;20049;-37
2022/06/16 09:31:13;;;;;;;1.30;1.15;;;;;;;31.75;21.56;99125.56;5024031;28;20037;-37
2022/06/16 09:33:44;;;;;;;3.08;1.30;;;;;;;32.54;20.75;99114.94;5016451;28;20037;-38
2022/06/16 09:36:13;;;;;;;1.25;1.05;;;;;;;33.72;20.30;99120.13;5032437;28;20041;-37
2022/06/16 09:38:46;;;;;;;3.05;1.45;;;;;;;34.74;19.79;99125.28;5031496;28;20506;-38
2022/06/16 09:44:20;;;;;;;5.40;1.27;;;;;;;34.00;20.19;99122.47;5021073;28;20079;-38
2022/06/16 09:46:48;;;;;;;2.80;1.33;;;;;;;33.96;20.66;99115.84;5034061;28;20508;-38
2022/06/16 09:49:21;;;;;;;2.03;1.50;;;;;;;34.31;20.51;99116.25;5050518;28;20057;-37
2022/06/16 09:51:54;;;;;;;5.05;1.20;;;;;;;34.93;19.63;99122.59;5052004;28;20554;-38
2022/06/16 09:54:27;;;;;;;4.53;1.40;;;;;;;36.11;19.06;99132.81;5039570;28;20152;-37
2022/06/16 09:57:02;;;;;;;4.07;1.17;;;;;;;35.47;19.51;99111.84;5036064;28;20038;-38
2022/06/16 10:00:13;;;;;;;4.90;1.00;;;;;;;33.15;22.07;99108.25;5031199;28;20068;-37
2022/06/16 10:02:45;;;;;;;2.58;0.82;;;;;;;30.67;25.33;99104.69;5012094;28;20429;-36
2022/06/16 10:05:19;;;;;;;5.85;0.95;;;;;;;29.43;26.96;99105.00;5013275;28;20034;-38
2022/06/16 10:07:58;;;;;;;1.92;0.98;;;;;;;28.22;29.31;99110.56;5022609;28;20517;-39
2022/06/16 10:10:26;;;;;;;5.18;1.13;;;;;;;27.09;32.26;99105.78;5064510;28;20067;-39
2022/06/16 10:12:56;;;;;;;;;;;;;;;26.38;33.98;99116.38;5038113;28;20049;-37
2022/06/16 10:15:34;;;;;;;3.35;0.98;;;;;;;24.79;37.41;99094.19;5048779;28;20011;-38
2022/06/16 10:18:00;;;;;;;4.20;1.20;;;;;;;24.12;38.82;99108.09;5032547;28;20037;-37
2022/06/16 10:20:26;;;;;;;4.55;1.13;;;;;;;23.45;38.98;99112.88;5032657;28;20171;-38
2022/06/16 10:23:04;;;;;;;15.10;2.75;;;;;;;22.11;52.13;99127.25;5006009;28;20041;-37
2022/06/16 10:25:35;;;;;;;7.20;2.25;;;;;;;19.37;76.64;99133.00;5030805;28;20045;-37
2022/06/16 10:28:15;;;;;;;13.60;4.50;;;;;;;19.01;86.46;99140.22;5032777;28;20045;-37
2022/06/16 10:30:41;;;;;;;14.10;3.08;;;;;;;18.87;90.82;99142.25;5004676;28;20044;-38
2022/06/16 10:33:23;;;;;;;15.88;2.85;;;;;;;17.15;99.95;99125.97;5013994;28;20041;-37
2022/06/16 10:35:51;;;;;;;3.92;1.50;;;;;;;16.38;100.00;99121.63;5020974;28;20476;-38
2022/06/16 10:38:28;;;;;;;5.17;1.77;;;;;;;16.05;100.00;99114.22;5032519;28;20049;-38
2022/06/16 10:40:54;;;;;;;2.80;1.88;;;;;;;17.67;100.00;99120.50;5021396;28;20042;-38
2022/06/16 10:43:20;;;;;;;2.05;1.73;;;;;;;19.55;100.00;99115.78;5011623;28;20136;-39
2022/06/16 10:45:59;;;;;;;2.53;1.75;;;;;;;21.65;100.00;99116.44;5012640;28;20156;-37
2022/06/16 10:48:32;;;;;;;3.53;1.80;;;;;;;23.03;100.00;99112.47;5011420;28;20486;-39
2022/06/16 10:50:58;;;;;;;1.38;1.20;;;;;;;23.44;100.00;99115.66;5048217;28;20120;-38
2022/06/16 10:53:32;;;;;;;1.85;1.40;;;;;;;22.19;100.00;99121.28;5052303;28;20052;-38
2022/06/16 10:56:06;;;;;;;3.70;1.45;;;;;;;21.50;100.00;99121.28;5050803;28;20040;-37
2022/06/16 10:58:43;;;;;;;4.32;1.65;;;;;;;21.13;100.00;99113.91;5050871;28;20098;-38
2022/06/16 11:01:24;;;;;;;3.90;1.90;;;;;;;22.44;100.00;99114.56;5041420;28;20048;-37
2022/06/16 11:03:53;;;;;;;5.93;2.67;;;;;;;23.53;100.00;99118.28;5019904;28;20076;-38
2022/06/16 11:06:21;;;;;;;7.10;3.40;;;;;;;23.07;100.00;99126.28;5029562;28;20098;-38
2022/06/16 11:09:02;;;;;;;4.53;2.17;;;;;;;22.59;100.00;99118.44;5030004;28;20691;-38
2022/06/16 11:11:42;;;;;;;4.60;2.67;;;;;;;23.11;100.00;99130.31;5029950;28;20037;-38
2022/06/16 11:14:38;;;;;;;5.28;2.22;;;;;;;23.65;100.00;99118.94;5053403;28;20577;-38
2022/06/16 11:17:17;;;;;;;127.13;72.95;;;;;;;25.47;100.00;99118.16;5029265;28;20144;-38
2022/06/16 11:19:50;;;;;;;25.77;14.63;;;;;;;24.52;100.00;99099.66;5027643;28;20378;-37
2022/06/16 11:22:39;;;;;;;8.68;2.03;;;;;;;23.49;90.85;99108.13;5013825;28;20401;-38
2022/06/16 11:25:17;;;;;;;4.07;1.38;;;;;;;22.52;80.46;99110.22;5029640;28;20041;-39
2022/06/16 11:27:56;;;;;;;4.90;1.30;;;;;;;22.26;82.31;99114.44;5022165;28;20036;-38
2022/06/16 11:30:38;;;;;;;3.08;1.90;;;;;;;23.74;80.31;99088.81;5030125;28;20579;-37
2022/06/16 11:34:06;;;;;;;4.88;1.52;;;;;;;26.46;54.64;99111.03;5030276;28;20640;-38
2022/06/16 11:36:13;;;;;;;5.00;2.40;;;;;;;28.87;58.38;99109.16;5029668;28;20041;-38
2022/06/16 11:38:56;;;;;;;5.60;1.80;;;;;;;30.07;49.11;99105.97;5037131;28;20037;-38
2022/06/16 11:41:22;;;;;;;7.95;1.77;;;;;;;30.92;50.59;99111.25;5028766;28;20034;-38
2022/06/16 11:44:09;;;;;;;5.82;1.58;;;;;;;32.10;35.56;99102.88;5031282;28;20036;-38
2022/06/16 11:46:57;;;;;;;5.90;1.52;;;;;;;30.75;41.71;99106.38;5030231;28;20073;-37
2022/06/16 11:49:52;;;;;;;5.60;1.80;;;;;;;31.20;43.63;99113.06;5029484;28;20091;-38
2022/06/16 11:52:41;;;;;;;3.30;1.40;;;;;;;31.41;33.64;99086.94;5010276;28;20083;-38
2022/06/16 11:55:27;;;;;;;6.00;1.10;;;;;;;31.17;36.03;99108.13;5022082;28;20049;-38
2022/06/16 11:58:02;;;;;;;2.70;1.40;;;;;;;30.05;35.31;99094.59;5043972;28;20037;-37
2022/06/16 12:01:04;;;;;;;2.75;1.30;;;;;;;30.30;33.69;99100.44;5030505;28;20052;-37
2022/06/16 12:03:56;;;;;;;3.58;1.75;;;;;;;31.90;33.33;99100.16;5048562;28;20469;-37
2022/06/16 12:06:46;;;;;;;3.08;1.55;;;;;;;32.85;31.80;99093.63;5049173;28;20048;-37
2022/06/16 12:09:38;;;;;;;7.18;1.73;;;;;;;33.37;34.02;99092.66;5011008;28;20439;-38
2022/06/16 12:13:05;;;;;;;2.65;1.48;;;;;;;34.13;33.17;99087.28;5025989;28;20045;-38
2022/06/16 12:15:31;;;;;;;4.57;1.50;;;;;;;34.32;32.66;99096.31;5006103;28;20046;-38
2022/06/16 12:18:12;;;;;;;2.90;1.40;;;;;;;34.20;29.36;99095.38;5011107;28;20136;-38
2022/06/16 12:21:02;;;;;;;6.07;1.60;;;;;;;34.81;27.73;99098.19;5023040;28;20558;-37
2022/06/16 12:23:40;;;;;;;3.97;2.42;;;;;;;34.35;25.49;99094.00;5011992;28;20522;-37
2022/06/16 12:26:35;;;;;;;1.52;1.30;;;;;;;33.77;28.56;99098.72;5052674;28;20042;-38
2022/06/16 12:29:22;;;;;;;3.38;1.33;;;;;;;33.98;31.60;99097.56;5027838;28;20398;-37
2022/06/16 12:31:48;;;;;;;;;;;;;;;34.85;40.99;99100.25;5028091;28;20049;-37